Airfield :
LOGIN :

Register | Disclaimer

   EN    FR    IT 

 










Legend :    VFR   Marginal VFR   IFR   Intensive IFR   Very Intensive IFR
Visi :
Ceiling :
>= 8 km
>= 3000ft
5 to 8 km
1000 to 3000 ft
1500m to 5 km
500 to 1000 ft
800 to 1500m
200 to 500 ft
< 800m
< 200 ft
Symbols :   Thunderstorms  Fog  Heavy snow  Heavy precipitations  Wind > 20 kt
SIGMETs :     Misc.  Thunderstorms  Icing  Turbulence  Mountain Waves  Volcanic Ashes






- Airport Elevation : 238 ft
- IATA code : UAB


LTAG - Incirlik AB

CURRENT METAR :
  • 291350Z 01007KT 9999 FEW025CB BKN030 13/12 Q1006 RETSRA TEMPO -TSRA

EXPIRED METARs :
  • 291332Z 35006KT 9999 FEW025CB BKN030 12/12 Q1006 RETSRA BECMG TL1350 NSW TEMPO -TSRA
  • 291250Z 17008KT 5000 TSRA BKN020CB 13/13 Q1006 BECMG TL1330 9999 NSW TEMPO -TSRA
  • 291242Z 21015KT 1500 R05///// TSRA BKN020CB 14/13 Q1007 BECMG TL1310 9999 NSW TEMPO -TSRA
  • 291235Z 15008KT 9999 -TSRA FEW025CB BKN030 15/11 Q1006 RETS BECMG TL1310 NSW TEMPO -TSRA
  • 291150Z 17008KT 9999 TS FEW025CB BKN030 BKN090 16/11 Q1006 BECMG TL1220 NSW TEMPO -TSRA
  • 291120Z 18013KT 9999 TS FEW025CB BKN030 BKN090 16/10 Q1006 BECMG TL1150 NSW TEMPO -TSRA
  • 291110Z 17013KT 080V200 9999 TS FEW025CB BKN030 BKN090 15/11 Q1006 BECMG TL1130 NSW TEMPO -TSRA

TAF TAF LTAG
Valid from the 29 at 12:00 until the 01 at 12:00 UTC


291040Z 2912/0112 VRB02KT 9999 BKN030 BKN100
TEMPO 2912/2916 VRB15G25KT -TSRA SCT025CB BKN030
PROB40
TEMPO 2917/2921 -TSRA FEW025CB BKN030
BECMG 0100/0103 SCT035 BKN100



MET'MAP, your aeronautical weather chart ! - Copyright ORBIFLY December 2007 - Disclaimer

ORBIFLY MET'MAP TEAM :

Programming & Development : Alexandra Zaïnal
Concept & original design : Baudouin d'Aumeries
Assistance for programming : Marc-Olivier Méhu
Technical & hardware support : Manuel Goepfert

Contact : metmap@orbifly.com




SOURCES & CREDITS :

   NOAA